Time;durP1;ratioP1;P1;durP2;ratioP2;P2;SDS_P1;SDS_P2;PMS_P1;PMS_P2;Temp;Humidity;BMP_temperature;BMP_pressure;BME280_temperature;BME280_humidity;BME280_pressure;Samples;Min_cycle;Max_cycle;Signal;HPM_P1;HPM_P2
2021/07/14 00:01:55;;;;;;;;;48.25;38.25;;;;;-146.80;100.00;64830.25;5079319;28;45513;-72
2021/07/14 00:04:20;;;;;;;;;44.75;36.00;;;;;-146.80;100.00;64830.25;5079443;28;45358;-72
2021/07/14 00:06:46;;;;;;;;;49.50;39.25;;;;;-146.80;100.00;64830.25;5060795;28;45469;-72
2021/07/14 00:09:11;;;;;;;;;49.50;39.75;;;;;-146.80;100.00;64830.25;5060425;28;46919;-71
2021/07/14 00:11:44;;;;;;;;;41.50;36.00;;;;;-146.80;100.00;64830.25;5060460;28;46311;-71
2021/07/14 00:22:19;;;;;;;;;35.25;29.75;;;;;-146.80;100.00;64830.25;5078658;28;45342;-72
2021/07/14 00:24:44;;;;;;;;;46.00;38.50;;;;;-146.80;100.00;64830.25;5078920;28;45320;-69
2021/07/14 00:27:12;;;;;;;;;49.50;37.50;;;;;-146.80;100.00;64830.25;5079043;28;45517;-69
2021/07/14 00:29:47;;;;;;;;;46.50;37.50;;;;;-146.80;100.00;64830.25;5078418;28;46343;-70
2021/07/14 00:32:13;;;;;;;;;43.00;37.00;;;;;-146.80;100.00;64830.25;5094448;27;45435;-71
2021/07/14 00:34:38;;;;;;;;;46.75;37.75;;;;;-146.80;100.00;64830.25;5078587;28;45515;-72
2021/07/14 00:37:03;;;;;;;;;42.75;36.50;;;;;-146.80;100.00;64830.25;5081061;28;45689;-72
2021/07/14 00:39:29;;;;;;;;;43.50;35.25;;;;;-146.80;100.00;64830.25;5078451;28;45508;-68
2021/07/14 00:41:54;;;;;;;;;42.00;35.50;;;;;-146.80;100.00;64830.25;5060659;28;45331;-69
2021/07/14 00:44:19;;;;;;;;;40.00;35.00;;;;;-146.80;100.00;64830.25;5080905;28;45458;-69
2021/07/14 00:46:48;;;;;;;;;46.00;37.50;;;;;-146.80;100.00;64830.25;5079117;28;45338;-67
2021/07/14 00:49:16;;;;;;;;;46.25;36.75;;;;;-146.80;100.00;64830.25;5078489;28;45955;-70
2021/07/14 00:51:43;;;;;;;;;44.50;36.75;;;;;-146.80;100.00;64830.25;5077947;28;45582;-68
2021/07/14 00:54:10;;;;;;;;;43.75;38.50;;;;;-146.80;100.00;64830.25;5077969;28;45318;-68
2021/07/14 00:56:36;;;;;;;;;41.75;33.75;;;;;-146.80;100.00;64830.25;5078524;28;45431;-69
2021/07/14 00:59:01;;;;;;;;;40.75;33.00;;;;;-146.80;100.00;64830.25;5078324;28;46659;-68
2021/07/14 01:01:27;;;;;;;;;45.25;36.50;;;;;-146.80;100.00;64830.25;5077864;28;45495;-69
2021/07/14 01:04:06;;;;;;;;;39.25;34.50;;;;;-146.80;100.00;64830.25;5059782;28;45370;-70
2021/07/14 01:06:59;;;;;;;;;43.50;37.00;;;;;-146.80;100.00;64830.25;5060202;28;45503;-74
2021/07/14 01:09:31;;;;;;;;;44.25;36.75;;;;;-146.80;100.00;64830.25;5078374;28;45276;-73
2021/07/14 01:12:09;;;;;;;;;39.25;34.25;;;;;-146.80;100.00;64830.25;5078399;28;45343;-73
2021/07/14 01:14:46;;;;;;;;;46.50;34.50;;;;;-146.80;100.00;64830.25;5078273;28;45279;-72
2021/07/14 01:17:16;;;;;;;;;40.50;31.50;;;;;-146.80;100.00;64830.25;5078082;28;45356;-72
2021/07/14 01:20:04;;;;;;;;;34.25;32.00;;;;;-146.80;100.00;64830.25;5077418;28;45369;-72
2021/07/14 01:23:07;;;;;;;;;37.00;33.50;;;;;-146.80;100.00;64830.25;5077482;28;45260;-71
2021/07/14 01:26:01;;;;;;;;;35.50;31.25;;;;;-146.80;100.00;64830.25;5077971;28;45364;-70
2021/07/14 01:28:28;;;;;;;;;36.75;30.50;;;;;-146.80;100.00;64830.25;5077822;28;45255;-70
2021/07/14 01:30:55;;;;;;;;;33.00;30.25;;;;;-146.80;100.00;64830.25;5077420;28;46255;-70
2021/07/14 01:33:26;;;;;;;;;31.50;29.75;;;;;-146.80;100.00;64830.25;5059331;28;45356;-68
2021/07/14 01:35:54;;;;;;;;;31.75;31.00;;;;;-146.80;100.00;64830.25;5077521;28;45336;-70
2021/07/14 01:38:24;;;;;;;;;37.50;30.75;;;;;-146.80;100.00;64830.25;5059221;28;45335;-69
2021/07/14 01:40:51;;;;;;;;;33.00;28.00;;;;;-146.80;100.00;64830.25;5077378;28;47374;-69
2021/07/14 01:43:17;;;;;;;;;27.00;24.00;;;;;-146.80;100.00;64830.25;5092999;27;45267;-69
2021/07/14 01:45:46;;;;;;;;;29.25;25.75;;;;;-146.80;100.00;64830.25;5077263;28;45312;-68
2021/07/14 01:48:14;;;;;;;;;29.00;24.50;;;;;-146.80;100.00;64830.25;5077455;28;45467;-71
2021/07/14 01:50:41;;;;;;;;;32.50;29.50;;;;;-146.80;100.00;64830.25;5077115;28;46259;-68
2021/07/14 01:53:07;;;;;;;;;29.00;25.25;;;;;-146.80;100.00;64830.25;5077651;28;45324;-72
2021/07/14 01:55:38;;;;;;;;;28.25;25.75;;;;;-146.80;100.00;64830.25;5093668;27;45376;-71
2021/07/14 01:58:04;;;;;;;;;28.25;24.25;;;;;-146.80;100.00;64830.25;5077300;28;45356;-68
2021/07/14 02:00:30;;;;;;;;;30.25;23.50;;;;;-146.80;100.00;64830.25;5076880;28;46214;-72
2021/07/14 02:05:27;;;;;;;;;24.25;21.25;;;;;-146.80;100.00;64830.25;5077096;28;45433;-69
2021/07/14 02:07:52;;;;;;;;;23.50;22.00;;;;;-146.80;100.00;64830.25;5077093;28;45324;-69
2021/07/14 02:10:18;;;;;;;;;21.00;19.50;;;;;-146.80;100.00;64830.25;5076604;28;46271;-69
2021/07/14 02:12:47;;;;;;;;;19.25;17.25;;;;;-146.80;100.00;64830.25;5076720;28;45336;-70
2021/07/14 02:15:12;;;;;;;;;17.00;17.00;;;;;-146.80;100.00;64830.25;5076894;28;45176;-70
2021/07/14 02:17:55;;;;;;;;;17.50;15.50;;;;;-146.80;100.00;64830.25;5077313;28;45485;-68
2021/07/14 02:20:22;;;;;;;;;18.50;16.00;;;;;-146.80;100.00;64830.25;5076964;28;46666;-68
2021/07/14 02:22:48;;;;;;;;;19.50;16.50;;;;;-146.80;100.00;64830.25;5076548;28;45251;-72
2021/07/14 02:25:15;;;;;;;;;17.75;15.75;;;;;-146.80;100.00;64830.25;5076805;28;45437;-68
2021/07/14 02:27:41;;;;;;;;;16.25;13.50;;;;;-146.80;100.00;64830.25;5058954;28;45439;-71
2021/07/14 02:30:15;;;;;;;;;16.75;14.75;;;;;-146.80;100.00;64830.25;5058582;28;46005;-71
2021/07/14 02:32:41;;;;;;;;;18.75;18.75;;;;;-146.80;100.00;64830.25;5077608;28;45333;-73
2021/07/14 02:35:07;;;;;;;;;14.75;14.75;;;;;-146.80;100.00;64830.25;5078346;28;45316;-72
2021/07/14 02:38:04;;;;;;;;;19.00;16.00;;;;;-146.80;100.00;64830.25;5077292;28;45303;-72
2021/07/14 02:40:37;;;;;;;;;19.75;17.00;;;;;-146.80;100.00;64830.25;5077079;28;46095;-70
2021/07/14 02:43:05;;;;;;;;;18.50;13.25;;;;;-146.80;100.00;64830.25;5077787;28;45390;-70
2021/07/14 02:45:36;;;;;;;;;12.75;12.00;;;;;-146.80;100.00;64830.25;5078806;28;45304;-66
2021/07/14 02:48:03;;;;;;;;;11.75;11.00;;;;;-146.80;100.00;64830.25;5076877;28;45425;-71
2021/07/14 02:50:31;;;;;;;;;14.75;13.00;;;;;-146.80;100.00;64830.25;5076855;27;47273;-68
2021/07/14 02:53:02;;;;;;;;;14.75;14.00;;;;;-146.80;100.00;64830.25;5076709;28;45286;-71
2021/07/14 02:55:31;;;;;;;;;14.50;14.50;;;;;-146.80;100.00;64830.25;5076585;28;45413;-70
2021/07/14 02:58:00;;;;;;;;;14.00;12.75;;;;;-146.80;100.00;64830.25;5076817;28;45193;-69
2021/07/14 03:00:28;;;;;;;;;12.75;12.00;;;;;-146.80;100.00;64830.25;5076466;28;46136;-69
2021/07/14 03:02:54;;;;;;;;;15.00;13.75;;;;;-146.80;100.00;64830.25;5076242;28;45524;-68
2021/07/14 03:05:20;;;;;;;;;17.00;14.00;;;;;-146.80;100.00;64830.25;5078151;28;45353;-68
2021/07/14 03:07:48;;;;;;;;;10.75;10.50;;;;;-146.80;100.00;64830.25;5078137;28;45532;-68
2021/07/14 03:10:17;;;;;;;;;12.50;11.75;;;;;-146.80;100.00;64830.25;5076297;28;46390;-69
2021/07/14 03:12:45;;;;;;;;;13.25;12.50;;;;;-146.80;100.00;64830.25;5076074;28;45433;-67
2021/07/14 03:15:11;;;;;;;;;15.50;14.50;;;;;-146.80;100.00;64830.25;5076032;28;45290;-69
2021/07/14 03:17:39;;;;;;;;;16.50;13.50;;;;;-146.80;100.00;64830.25;5076444;28;45304;-69
2021/07/14 03:20:08;;;;;;;;;14.00;12.25;;;;;-146.80;100.00;64830.25;5075979;28;45429;-68
2021/07/14 03:22:36;;;;;;;;;13.25;12.50;;;;;-146.80;100.00;64830.25;5091980;27;45329;-69
2021/07/14 03:25:03;;;;;;;;;14.00;12.25;;;;;-146.80;100.00;64830.25;5076912;28;45414;-69
2021/07/14 03:27:28;;;;;;;;;12.00;11.50;;;;;-146.80;100.00;64830.25;5078226;28;45391;-71
2021/07/14 03:29:55;;;;;;;;;11.25;10.25;;;;;-146.80;100.00;64830.25;5076967;28;45922;-69
2021/07/14 03:32:20;;;;;;;;;9.75;9.00;;;;;-146.80;100.00;64830.25;5076817;28;45264;-69
2021/07/14 03:34:46;;;;;;;;;12.00;12.00;;;;;-146.80;100.00;64830.25;5075993;28;45286;-71
2021/07/14 03:37:12;;;;;;;;;10.75;10.00;;;;;-146.80;100.00;64830.25;5076574;28;45644;-70
2021/07/14 03:39:40;;;;;;;;;12.25;10.00;;;;;-146.80;100.00;64830.25;5075627;28;46041;-70
2021/07/14 03:42:09;;;;;;;;;12.25;11.25;;;;;-146.80;100.00;64830.25;5075759;28;45373;-70
2021/07/14 03:44:36;;;;;;;;;14.00;10.25;;;;;-146.80;100.00;64830.25;5075814;28;45354;-69
2021/07/14 03:47:03;;;;;;;;;10.50;10.25;;;;;-146.80;100.00;64830.25;5075643;28;45438;-69
2021/07/14 03:49:29;;;;;;;;;11.75;9.50;;;;;-146.80;100.00;64830.25;5057310;28;47339;-69
2021/07/14 03:51:57;;;;;;;;;13.25;10.25;;;;;-146.80;100.00;64830.25;5075934;28;45375;-68
2021/07/14 03:54:23;;;;;;;;;13.25;13.00;;;;;-146.80;100.00;64830.25;5075919;28;45392;-70
2021/07/14 03:56:48;;;;;;;;;9.25;8.75;;;;;-146.80;100.00;64830.25;5075670;28;45186;-69
2021/07/14 03:59:15;;;;;;;;;11.25;10.25;;;;;-146.80;100.00;64830.25;5075348;28;46147;-68
2021/07/14 04:01:41;;;;;;;;;13.50;11.00;;;;;-146.80;100.00;64830.25;5075548;28;45351;-68
2021/07/14 04:04:09;;;;;;;;;8.75;7.25;;;;;-146.80;100.00;64830.25;5075354;28;45319;-68
2021/07/14 04:06:36;;;;;;;;;13.75;11.50;;;;;-146.80;100.00;64830.25;5075468;28;45613;-69
2021/07/14 04:09:16;;;;;;;;;16.00;10.00;;;;;-146.80;100.00;64830.25;5074953;28;45452;-69
2021/07/14 04:11:42;;;;;;;;;11.75;9.25;;;;;-146.80;100.00;64830.25;5057044;28;45582;-69
2021/07/14 04:14:08;;;;;;;;;11.25;10.75;;;;;-146.80;100.00;64830.25;5075158;28;45503;-68
2021/07/14 04:16:33;;;;;;;;;15.50;10.50;;;;;-146.80;100.00;64830.25;5057151;28;45393;-68
2021/07/14 04:19:00;;;;;;;;;12.75;10.00;;;;;-146.80;100.00;64830.25;5074959;28;45374;-69
2021/07/14 04:21:25;;;;;;;;;12.00;10.50;;;;;-146.80;100.00;64830.25;5076674;28;45430;-69
2021/07/14 04:23:51;;;;;;;;;13.50;9.25;;;;;-146.80;100.00;64830.25;5060164;28;45365;-68
2021/07/14 04:26:16;;;;;;;;;11.50;11.25;;;;;-146.80;100.00;64830.25;5060642;28;45545;-68
2021/07/14 04:28:42;;;;;;;;;11.25;9.75;;;;;-146.80;100.00;64830.25;5078562;28;45894;-68
2021/07/14 04:31:07;;;;;;;;;10.25;10.25;;;;;-146.80;100.00;64830.25;5078391;28;45283;-69
2021/07/14 04:33:32;;;;;;;;;11.00;10.25;;;;;-146.80;100.00;64830.25;5078535;28;45399;-69
2021/07/14 04:35:58;;;;;;;;;13.25;12.25;;;;;-146.80;100.00;64830.25;5078720;28;45386;-69
2021/07/14 04:38:24;;;;;;;;;11.00;9.00;;;;;-146.80;100.00;64830.25;5060052;28;46403;-69
2021/07/14 04:40:49;;;;;;;;;11.50;9.00;;;;;-146.80;100.00;64830.25;5078181;28;45256;-69
2021/07/14 04:43:14;;;;;;;;;13.25;10.25;;;;;-146.80;100.00;64830.25;5078789;28;45300;-68
2021/07/14 04:45:40;;;;;;;;;10.25;10.00;;;;;-146.80;100.00;64830.25;5078589;28;45343;-68
2021/07/14 04:48:06;;;;;;;;;11.25;10.25;;;;;-146.80;100.00;64830.25;5077920;28;45997;-69
2021/07/14 04:50:32;;;;;;;;;9.25;8.75;;;;;-146.80;100.00;64830.25;5078112;28;45358;-69
2021/07/14 04:52:57;;;;;;;;;13.50;13.25;;;;;-146.80;100.00;64830.25;5078221;28;45563;-69
2021/07/14 04:55:22;;;;;;;;;13.75;12.75;;;;;-146.80;100.00;64830.25;5078388;28;45620;-67
2021/07/14 04:57:48;;;;;;;;;12.50;12.25;;;;;-146.80;100.00;64830.25;5078046;28;46140;-68
2021/07/14 05:00:16;;;;;;;;;10.75;10.25;;;;;-146.80;100.00;64830.25;5078333;28;45397;-68
2021/07/14 05:02:46;;;;;;;;;16.50;12.25;;;;;-146.80;100.00;64830.25;5094344;27;45853;-69
2021/07/14 05:05:15;;;;;;;;;13.50;7.50;;;;;-146.80;100.00;64830.25;5078241;28;45516;-69
2021/07/14 05:07:41;;;;;;;;;12.00;12.00;;;;;-146.80;100.00;64830.25;5077154;28;46161;-69
2021/07/14 05:10:08;;;;;;;;;14.50;12.50;;;;;-146.80;100.00;64830.25;5077563;28;45245;-69
2021/07/14 05:12:33;;;;;;;;;12.25;12.25;;;;;-146.80;100.00;64830.25;5077707;28;45279;-69
2021/07/14 05:14:59;;;;;;;;;12.50;12.50;;;;;-146.80;100.00;64830.25;5077724;28;45335;-69
2021/07/14 05:17:24;;;;;;;;;11.75;11.75;;;;;-146.80;100.00;64830.25;5077451;28;46095;-69
2021/07/14 05:19:49;;;;;;;;;13.00;11.75;;;;;-146.80;100.00;64830.25;5077453;28;45315;-69
2021/07/14 05:22:15;;;;;;;;;15.25;13.00;;;;;-146.80;100.00;64830.25;5077902;28;45356;-68
2021/07/14 05:24:41;;;;;;;;;15.50;14.25;;;;;-146.80;100.00;64830.25;5077665;28;45263;-69
2021/07/14 05:27:07;;;;;;;;;13.75;13.00;;;;;-146.80;100.00;64830.25;5077292;28;45351;-68
2021/07/14 05:29:32;;;;;;;;;15.25;12.75;;;;;-146.80;100.00;64830.25;5059005;28;45371;-69
2021/07/14 05:31:58;;;;;;;;;21.50;14.75;;;;;-146.80;100.00;64830.25;5077292;28;45407;-70
2021/07/14 05:34:23;;;;;;;;;15.75;14.25;;;;;-146.80;100.00;64830.25;5077323;28;45536;-69
2021/07/14 05:36:49;;;;;;;;;15.75;15.25;;;;;-146.80;100.00;64830.25;5077458;28;45267;-69
2021/07/14 05:39:14;;;;;;;;;16.00;15.25;;;;;-146.80;100.00;64830.25;5077532;28;45343;-69
2021/07/14 05:41:41;;;;;;;;;12.75;12.25;;;;;-146.80;100.00;64830.25;5077555;28;45326;-69
2021/07/14 05:44:07;;;;;;;;;19.75;15.25;;;;;-146.80;100.00;64830.25;5059504;28;45498;-69
2021/07/14 05:46:33;;;;;;;;;14.75;13.50;;;;;-146.80;100.00;64830.25;5076951;28;46850;-68
2021/07/14 05:49:02;;;;;;;;;20.00;16.00;;;;;-146.80;100.00;64830.25;5076937;28;45268;-70
2021/07/14 05:51:28;;;;;;;;;17.00;13.50;;;;;-146.80;100.00;64830.25;5058672;28;45345;-69
2021/07/14 05:53:54;;;;;;;;;19.25;14.75;;;;;-146.80;100.00;64830.25;5093196;27;45365;-68
2021/07/14 05:56:19;;;;;;;;;18.75;17.00;;;;;-146.80;100.00;64830.25;5076828;28;46088;-68
2021/07/14 05:58:45;;;;;;;;;14.25;13.25;;;;;-146.80;100.00;64830.25;5077131;28;45383;-68
2021/07/14 06:01:10;;;;;;;;;15.50;14.00;;;;;-146.80;100.00;64830.25;5077038;28;45481;-68
2021/07/14 06:03:35;;;;;;;;;16.00;15.00;;;;;-146.80;100.00;64830.25;5077126;28;45456;-69
2021/07/14 06:06:00;;;;;;;;;14.75;11.00;;;;;-146.80;100.00;64830.25;5076773;28;45385;-69
2021/07/14 06:08:26;;;;;;;;;12.00;11.25;;;;;-146.80;100.00;64830.25;5076697;28;45394;-69
2021/07/14 06:10:52;;;;;;;;;13.75;11.25;;;;;-146.80;100.00;64830.25;5077000;28;45757;-68
2021/07/14 06:13:17;;;;;;;;;13.00;13.00;;;;;-146.80;100.00;64830.25;5077397;28;45177;-69
2021/07/14 06:15:43;;;;;;;;;13.25;12.75;;;;;-146.80;100.00;64830.25;5058418;28;48237;-69
2021/07/14 06:18:09;;;;;;;;;11.75;11.50;;;;;-146.80;100.00;64830.25;5076733;28;45206;-69
2021/07/14 06:20:34;;;;;;;;;11.75;11.50;;;;;-146.80;100.00;64830.25;5076788;28;45336;-70
2021/07/14 06:22:59;;;;;;;;;12.25;9.75;;;;;-146.80;100.00;64830.25;5076793;28;45609;-69
2021/07/14 06:25:25;;;;;;;;;12.00;10.25;;;;;-146.80;100.00;64830.25;5076577;28;46200;-69
2021/07/14 06:27:50;;;;;;;;;12.50;8.75;;;;;-146.80;100.00;64830.25;5076911;28;45224;-69
2021/07/14 06:30:17;;;;;;;;;10.00;9.50;;;;;-146.80;100.00;64830.25;5058574;28;45308;-69
2021/07/14 06:32:43;;;;;;;;;8.50;6.75;;;;;-146.80;100.00;64830.25;5076802;28;45536;-69
2021/07/14 06:35:11;;;;;;;;;12.00;9.50;;;;;-146.80;100.00;64830.25;5058212;28;47127;-69
2021/07/14 06:37:39;;;;;;;;;11.25;10.25;;;;;-146.80;100.00;64830.25;5058145;28;45459;-69
2021/07/14 06:40:08;;;;;;;;;8.75;8.00;;;;;-146.80;100.00;64830.25;5076375;28;45382;-70
2021/07/14 06:42:33;;;;;;;;;9.75;9.75;;;;;-146.80;100.00;64830.25;5076505;28;45371;-70
2021/07/14 06:44:59;;;;;;;;;11.50;11.50;;;;;-146.80;100.00;64830.25;5056736;28;46861;-70
2021/07/14 06:47:24;;;;;;;;;11.50;9.25;;;;;-146.80;100.00;64830.25;5076374;28;45382;-70
2021/07/14 06:49:50;;;;;;;;;11.25;9.50;;;;;-146.80;100.00;64830.25;5076834;28;45508;-70
2021/07/14 06:52:15;;;;;;;;;11.75;11.25;;;;;-146.80;100.00;64830.25;5076989;28;45248;-69
2021/07/14 06:54:40;;;;;;;;;8.75;8.75;;;;;-146.80;100.00;64830.25;5076279;28;46222;-69
2021/07/14 06:57:07;;;;;;;;;12.00;9.50;;;;;-146.80;100.00;64830.25;5076174;28;45469;-69
2021/07/14 06:59:33;;;;;;;;;8.00;8.00;;;;;-146.80;100.00;64830.25;5076419;28;45304;-70
2021/07/14 07:02:02;;;;;;;;;15.50;13.00;;;;;-146.80;100.00;64830.25;5076208;28;45340;-70
2021/07/14 07:04:29;;;;;;;;;12.00;9.50;;;;;-146.80;100.00;64830.25;5076120;28;47184;-69
2021/07/14 07:06:54;;;;;;;;;10.75;10.75;;;;;-146.80;100.00;64830.25;5075945;28;45401;-68
2021/07/14 07:09:20;;;;;;;;;13.75;10.50;;;;;-146.80;100.00;64830.25;5058108;28;45432;-68
2021/07/14 07:11:45;;;;;;;;;12.25;12.25;;;;;-146.80;100.00;64830.25;5058159;28;45594;-68
2021/07/14 07:14:10;;;;;;;;;10.50;8.00;;;;;-146.80;100.00;64830.25;5075970;28;46734;-68
2021/07/14 07:16:36;;;;;;;;;12.50;12.50;;;;;-146.80;100.00;64830.25;5075719;28;45358;-68
2021/07/14 07:19:01;;;;;;;;;15.00;11.00;;;;;-146.80;100.00;64830.25;5057329;28;45370;-69
2021/07/14 07:21:27;;;;;;;;;11.75;11.75;;;;;-146.80;100.00;64830.25;5076050;28;45781;-69
2021/07/14 07:23:53;;;;;;;;;13.50;10.50;;;;;-146.80;100.00;64830.25;5075958;28;46366;-69
2021/07/14 07:26:18;;;;;;;;;9.75;8.00;;;;;-146.80;100.00;64830.25;5075626;28;45347;-70
2021/07/14 07:28:45;;;;;;;;;12.00;12.00;;;;;-146.80;100.00;64830.25;5075857;28;45449;-69
2021/07/14 07:31:11;;;;;;;;;14.25;11.25;;;;;-146.80;100.00;64830.25;5092431;27;45560;-70
2021/07/14 07:33:38;;;;;;;;;13.00;11.00;;;;;-146.80;100.00;64830.25;5075509;28;46467;-71
2021/07/14 07:36:05;;;;;;;;;15.75;13.75;;;;;-146.80;100.00;64830.25;5075525;28;45287;-70
2021/07/14 07:38:32;;;;;;;;;13.25;13.25;;;;;-146.80;100.00;64830.25;5075617;28;45321;-70
2021/07/14 07:40:58;;;;;;;;;14.00;12.50;;;;;-146.80;100.00;64830.25;5057796;28;45569;-70
2021/07/14 07:43:27;;;;;;;;;11.00;10.75;;;;;-146.80;100.00;64830.25;5075549;28;45269;-69
2021/07/14 07:45:52;;;;;;;;;16.00;14.00;;;;;-146.80;100.00;64830.25;5075354;28;45520;-69
2021/07/14 07:48:18;;;;;;;;;10.75;10.25;;;;;-146.80;100.00;64830.25;5075126;28;45762;-69
2021/07/14 07:50:43;;;;;;;;;12.25;10.75;;;;;-146.80;100.00;64830.25;5075731;28;45295;-69
2021/07/14 07:53:09;;;;;;;;;13.25;12.50;;;;;-146.80;100.00;64830.25;5074942;28;46444;-70
2021/07/14 07:55:35;;;;;;;;;13.00;12.25;;;;;-146.80;100.00;64830.25;5075650;28;45342;-70
2021/07/14 07:58:00;;;;;;;;;12.00;12.00;;;;;-146.80;100.00;64830.25;5078902;28;45303;-70
2021/07/14 08:00:26;;;;;;;;;14.75;11.25;;;;;-146.80;100.00;64830.25;5061176;28;45612;-70
2021/07/14 08:02:52;;;;;;;;;11.25;11.25;;;;;-146.80;100.00;64830.25;5060791;28;45352;-70
2021/07/14 08:05:17;;;;;;;;;11.50;9.75;;;;;-146.80;100.00;64830.25;5060514;28;45274;-71
2021/07/14 08:07:43;;;;;;;;;11.00;10.50;;;;;-146.80;100.00;64830.25;5078885;28;45333;-70
2021/07/14 08:10:10;;;;;;;;;12.00;9.25;;;;;-146.80;100.00;64830.25;5079032;28;45611;-71
2021/07/14 08:12:36;;;;;;;;;11.25;8.50;;;;;-146.80;100.00;64830.25;5078659;28;46351;-70
2021/07/14 08:15:04;;;;;;;;;10.00;8.75;;;;;-146.80;100.00;64830.25;5094106;27;45281;-70
2021/07/14 08:17:29;;;;;;;;;8.00;8.00;;;;;-146.80;100.00;64830.25;5078557;28;45292;-71
2021/07/14 08:19:54;;;;;;;;;9.25;7.75;;;;;-146.80;100.00;64830.25;5095033;27;45404;-69
2021/07/14 08:22:20;;;;;;;;;8.75;8.75;;;;;-146.80;100.00;64830.25;5078683;28;45434;-71
2021/07/14 08:24:45;;;;;;;;;8.50;8.50;;;;;-146.80;100.00;64830.25;5078538;28;45334;-70
2021/07/14 08:27:11;;;;;;;;;10.75;9.25;;;;;-146.80;100.00;64830.25;5078698;28;45358;-70
2021/07/14 08:29:37;;;;;;;;;8.00;7.25;;;;;-146.80;100.00;64830.25;5078622;28;45834;-69
2021/07/14 08:32:03;;;;;;;;;10.00;10.00;;;;;-146.80;100.00;64830.25;5078268;28;45962;-70
2021/07/14 08:34:28;;;;;;;;;7.25;7.00;;;;;-146.80;100.00;64830.25;5078034;28;45233;-70
2021/07/14 08:36:54;;;;;;;;;6.50;6.50;;;;;-146.80;100.00;64830.25;5078872;28;45555;-70
2021/07/14 08:39:19;;;;;;;;;8.75;8.75;;;;;-146.80;100.00;64830.25;5078437;28;45319;-70
2021/07/14 08:41:45;;;;;;;;;7.00;7.00;;;;;-146.80;100.00;64830.25;5078149;28;45446;-72
2021/07/14 08:44:14;;;;;;;;;6.50;6.50;;;;;-146.80;100.00;64830.25;5093969;27;46447;-71
2021/07/14 08:46:39;;;;;;;;;9.75;8.00;;;;;-146.80;100.00;64830.25;5094296;27;45411;-69
2021/07/14 08:49:06;;;;;;;;;8.00;6.75;;;;;-146.80;100.00;64830.25;5078045;28;45587;-70
2021/07/14 08:51:36;;;;;;;;;9.25;7.50;;;;;-146.80;100.00;64830.25;5078213;28;45534;-70
2021/07/14 08:54:03;;;;;;;;;8.00;7.25;;;;;-146.80;100.00;64830.25;5077909;28;45340;-71
2021/07/14 08:56:29;;;;;;;;;7.00;7.00;;;;;-146.80;100.00;64830.25;5078604;28;45529;-70
2021/07/14 08:58:55;;;;;;;;;8.00;8.00;;;;;-146.80;100.00;64830.25;5060114;28;45511;-70
2021/07/14 09:01:20;;;;;;;;;7.50;7.50;;;;;-146.80;100.00;64830.25;5059542;28;47481;-70
2021/07/14 09:03:46;;;;;;;;;8.75;8.00;;;;;-146.80;100.00;64830.25;5078002;28;45414;-71
2021/07/14 09:06:11;;;;;;;;;8.50;7.00;;;;;-146.80;100.00;64830.25;5078152;28;45499;-70
2021/07/14 09:08:38;;;;;;;;;8.50;8.00;;;;;-146.80;100.00;64830.25;5077288;28;45514;-70
2021/07/14 09:11:07;;;;;;;;;5.25;5.25;;;;;-146.80;100.00;64830.25;5078206;28;46103;-71
2021/07/14 09:13:43;;;;;;;;;9.00;7.50;;;;;-146.80;100.00;64830.25;5059976;28;45466;-70
2021/07/14 09:16:09;;;;;;;;;8.00;5.50;;;;;-146.80;100.00;64830.25;5077945;28;45408;-71
2021/07/14 09:18:34;;;;;;;;;7.25;7.25;;;;;-146.80;100.00;64830.25;5078009;28;45535;-71
2021/07/14 09:21:02;;;;;;;;;7.00;5.50;;;;;-146.80;100.00;64830.25;5077707;28;45402;-71
2021/07/14 09:23:31;;;;;;;;;6.00;6.00;;;;;-146.80;100.00;64830.25;5077904;28;45350;-71
2021/07/14 09:26:01;;;;;;;;;7.25;7.25;;;;;-146.80;100.00;64830.25;5059654;28;45447;-71
2021/07/14 09:28:29;;;;;;;;;6.75;6.75;;;;;-146.80;100.00;64830.25;5078160;28;45410;-70
2021/07/14 09:31:07;;;;;;;;;7.00;7.00;;;;;-146.80;100.00;64830.25;5059572;28;45576;-70
2021/07/14 09:33:33;;;;;;;;;8.00;7.00;;;;;-146.80;100.00;64830.25;5093820;27;45540;-71
2021/07/14 09:35:59;;;;;;;;;8.00;6.25;;;;;-146.80;100.00;64830.25;5077883;28;45326;-69
2021/07/14 09:38:29;;;;;;;;;7.00;7.00;;;;;-146.80;100.00;64830.25;5077754;28;45429;-71
2021/07/14 09:40:57;;;;;;;;;5.25;5.25;;;;;-146.80;100.00;64830.25;5077235;28;45247;-69
2021/07/14 09:43:25;;;;;;;;;7.25;5.50;;;;;-146.80;100.00;64830.25;5076973;28;45473;-70
2021/07/14 09:45:56;;;;;;;;;7.75;7.00;;;;;-146.80;100.00;64830.25;5077251;28;45382;-70
2021/07/14 09:48:25;;;;;;;;;6.50;6.50;;;;;-146.80;100.00;64830.25;5076936;27;45441;-69
2021/07/14 09:50:53;;;;;;;;;6.00;6.00;;;;;-146.80;100.00;64830.25;5076841;28;45692;-67
2021/07/14 09:53:21;;;;;;;;;10.00;8.00;;;;;-146.80;100.00;64830.25;5065869;28;45629;-71
2021/07/14 09:55:50;;;;;;;;;8.25;7.00;;;;;-146.80;100.00;64830.25;5035005;28;45505;-70
2021/07/14 09:58:36;;;;;;;;;9.25;8.25;;;;;-146.80;100.00;64830.25;5056567;28;45436;-69
2021/07/14 10:01:04;;;;;;;;;10.00;8.00;;;;;-146.80;100.00;64830.25;5054775;28;46155;-69
2021/07/14 10:03:34;;;;;;;;;6.25;6.25;;;;;-146.80;100.00;64830.25;5055357;28;46292;-65
2021/07/14 10:06:03;;;;;;;;;5.75;5.50;;;;;-146.80;100.00;64830.25;5055966;28;46200;-70
2021/07/14 10:08:29;;;;;;;;;5.75;5.00;;;;;-146.80;100.00;64830.25;5054676;28;45421;-67
2021/07/14 10:11:17;;;;;;;;;6.00;6.00;;;;;-146.80;100.00;64830.25;5055021;28;47412;-68
2021/07/14 10:14:08;;;;;;;;;5.25;5.25;;;;;-146.80;100.00;64830.25;5056406;28;45436;-68
2021/07/14 10:16:43;;;;;;;;;6.25;6.25;;;;;-146.80;100.00;64830.25;5056144;28;45310;-67
2021/07/14 10:19:09;;;;;;;;;7.25;6.50;;;;;-146.80;100.00;64830.25;5056467;28;45347;-67
2021/07/14 10:21:37;;;;;;;;;8.00;6.00;;;;;-146.80;100.00;64830.25;5056102;28;46624;-68
2021/07/14 10:24:04;;;;;;;;;7.75;6.00;;;;;-146.80;100.00;64830.25;5056313;28;45455;-68
2021/07/14 10:26:33;;;;;;;;;7.00;7.00;;;;;-146.80;100.00;64830.25;5056367;28;45375;-68
2021/07/14 10:28:59;;;;;;;;;9.00;7.00;;;;;-146.80;100.00;64830.25;5056447;28;45353;-69
2021/07/14 10:31:24;;;;;;;;;7.00;6.50;;;;;-146.80;100.00;64830.25;5037864;28;47104;-68
2021/07/14 10:33:51;;;;;;;;;6.50;5.75;;;;;-146.80;100.00;64830.25;5055988;28;45322;-68
2021/07/14 10:36:21;;;;;;;;;7.75;5.00;;;;;-146.80;100.00;64830.25;5056327;28;45324;-69
2021/07/14 10:38:50;;;;;;;;;7.75;7.75;;;;;-146.80;100.00;64830.25;5056135;28;45336;-68
2021/07/14 10:41:16;;;;;;;;;9.75;7.25;;;;;-146.80;100.00;64830.25;5055904;28;46531;-69
2021/07/14 10:43:44;;;;;;;;;7.00;6.00;;;;;-146.80;100.00;64830.25;5055922;28;45690;-69
2021/07/14 10:46:11;;;;;;;;;10.00;8.75;;;;;-146.80;100.00;64830.25;5055388;28;45462;-69
2021/07/14 10:48:41;;;;;;;;;9.25;8.00;;;;;-146.80;100.00;64830.25;5069635;28;45499;-68
2021/07/14 10:51:06;;;;;;;;;7.25;7.25;;;;;-146.80;100.00;64830.25;5075671;27;46332;-69
2021/07/14 10:53:33;;;;;;;;;8.00;8.00;;;;;-146.80;100.00;64830.25;5075795;28;45620;-70
2021/07/14 10:55:59;;;;;;;;;9.00;9.00;;;;;-146.80;100.00;64830.25;5075793;28;45456;-68
2021/07/14 10:58:29;;;;;;;;;10.50;7.75;;;;;-146.80;100.00;64830.25;5075288;27;45588;-70
2021/07/14 11:00:54;;;;;;;;;9.00;9.00;;;;;-146.80;100.00;64830.25;5073522;28;46170;-69
2021/07/14 11:03:40;;;;;;;;;8.50;8.00;;;;;-146.80;100.00;64830.25;5075022;28;45226;-70
2021/07/14 11:06:09;;;;;;;;;11.00;8.25;;;;;-146.80;100.00;64830.25;5075171;27;45529;-70
2021/07/14 11:08:42;;;;;;;;;8.00;7.00;;;;;-146.80;100.00;64830.25;5075000;27;45438;-70
2021/07/14 11:11:08;;;;;;;;;7.50;7.25;;;;;-146.80;100.00;64830.25;5090413;27;46149;-67
2021/07/14 11:13:38;;;;;;;;;8.00;8.00;;;;;-146.80;100.00;64830.25;5075150;28;45356;-70